createdAt,value
2022-10-28T00:02:05.508Z,98975.47
2022-10-28T00:04:32.503Z,98977.59
2022-10-28T00:06:59.117Z,98971.31
2022-10-28T00:09:25.702Z,98981.28
2022-10-28T00:11:52.332Z,98983.78
2022-10-28T00:14:18.909Z,98981.69
2022-10-28T00:16:45.680Z,98991.53
2022-10-28T00:19:13.902Z,98987.59
2022-10-28T00:21:42.354Z,98982.38
2022-10-28T00:24:10.837Z,98978.94
2022-10-28T00:26:39.780Z,98978.72
2022-10-28T00:29:10.106Z,98982.88
2022-10-28T00:31:37.701Z,98979.22
2022-10-28T00:34:07.550Z,98971.13
2022-10-28T00:36:39.583Z,98971.34
2022-10-28T00:39:13.320Z,98967.31
2022-10-28T00:41:42.215Z,98972.69
2022-10-28T00:44:39.946Z,98980.78
2022-10-28T00:47:31.595Z,98987.63
2022-10-28T00:50:13.505Z,98984.28
2022-10-28T00:52:40.561Z,98985.66
2022-10-28T00:55:08.659Z,98998.63
2022-10-28T00:57:37.675Z,98988.78
2022-10-28T01:00:09.455Z,98989.09
2022-10-28T01:02:45.615Z,98987.75
2022-10-28T01:05:15.781Z,98978.03
2022-10-28T01:07:43.349Z,98979.75
2022-10-28T01:10:11.683Z,98980.81
2022-10-28T01:12:48.438Z,98974.78
2022-10-28T01:15:24.291Z,98982.97
2022-10-28T01:17:50.832Z,98991.06
2022-10-28T01:20:29.532Z,98997.75
2022-10-28T01:23:05.031Z,98994.50
2022-10-28T01:25:50.549Z,98986.94
2022-10-28T01:28:49.644Z,98977.19
2022-10-28T01:31:38.242Z,98976.63
2022-10-28T01:34:11.139Z,98977.75
2022-10-28T01:36:59.640Z,98977.22
2022-10-28T01:39:34.770Z,98976.28
2022-10-28T01:42:04.484Z,98969.97
2022-10-28T01:44:58.882Z,98984.50
2022-10-28T01:47:31.793Z,98987.13
2022-10-28T01:50:04.915Z,98984.47
2022-10-28T01:52:32.969Z,98982.81
2022-10-28T01:55:33.212Z,98977.03
2022-10-28T01:58:02.112Z,98974.19
2022-10-28T02:00:31.882Z,98967.03
2022-10-28T02:02:58.609Z,98964.88
2022-10-28T02:05:43.806Z,98966.34
2022-10-28T02:08:32.325Z,98964.28
2022-10-28T02:11:17.667Z,98957.66
2022-10-28T02:13:44.358Z,98948.13
2022-10-28T02:16:36.248Z,98943.72
2022-10-28T02:19:30.239Z,98939.16
2022-10-28T02:22:22.733Z,98953.34
2022-10-28T02:25:06.410Z,98945.00
2022-10-28T02:27:37.113Z,98950.69
2022-10-28T02:30:06.785Z,98952.41
2022-10-28T02:32:38.824Z,98952.09
2022-10-28T02:35:13.187Z,98953.31
2022-10-28T02:37:42.340Z,98959.19
2022-10-28T02:40:16.555Z,98954.69
2022-10-28T02:42:49.536Z,98943.56
2022-10-28T02:45:22.852Z,98959.63
2022-10-28T02:47:59.667Z,98964.94
2022-10-28T02:50:33.056Z,98964.56
2022-10-28T02:53:02.593Z,98966.25
2022-10-28T02:55:35.434Z,98955.25
2022-10-28T02:58:02.097Z,98953.19
2022-10-28T03:00:28.791Z,98948.19
2022-10-28T03:02:55.387Z,98938.47
2022-10-28T03:05:22.014Z,98947.41
2022-10-28T03:07:48.625Z,98942.19
2022-10-28T03:10:15.192Z,98941.00
2022-10-28T03:12:41.878Z,98940.31
2022-10-28T03:15:08.867Z,98930.88
2022-10-28T03:17:35.558Z,98933.16
2022-10-28T03:20:02.168Z,98931.34
2022-10-28T03:22:28.987Z,98935.22
2022-10-28T03:24:55.768Z,98931.31
2022-10-28T03:27:22.399Z,98938.94
2022-10-28T03:29:49.039Z,98929.69
2022-10-28T03:32:16.730Z,98933.34
2022-10-28T03:34:43.399Z,98932.03
2022-10-28T03:37:10.094Z,98929.44
2022-10-28T03:39:36.749Z,98930.09
2022-10-28T03:42:03.242Z,98922.69
2022-10-28T03:44:30.333Z,98923.25
2022-10-28T03:46:57.514Z,98918.88
2022-10-28T03:49:24.221Z,98916.63
2022-10-28T03:51:50.871Z,98927.09
2022-10-28T03:54:17.513Z,98926.06
2022-10-28T03:56:44.140Z,98930.72
2022-10-28T03:59:12.407Z,98932.72
2022-10-28T04:01:41.043Z,98934.13
2022-10-28T04:04:07.830Z,98930.91
2022-10-28T04:06:34.425Z,98924.69
2022-10-28T04:09:00.972Z,98931.91
2022-10-28T04:11:27.586Z,98921.41
2022-10-28T04:13:54.177Z,98937.06
2022-10-28T04:16:24.067Z,98935.09
2022-10-28T04:18:50.724Z,98933.97
2022-10-28T04:21:17.406Z,98937.38
2022-10-28T04:23:44.032Z,98938.63
2022-10-28T04:26:10.663Z,98934.63
2022-10-28T04:28:37.331Z,98935.38
2022-10-28T04:31:04.074Z,98939.16
2022-10-28T04:33:31.298Z,98934.72
2022-10-28T04:35:57.929Z,98931.31
2022-10-28T04:40:56.465Z,98934.56
2022-10-28T04:43:23.079Z,98927.44
2022-10-28T04:45:49.704Z,98919.91
2022-10-28T04:48:16.628Z,98913.34
2022-10-28T04:50:44.297Z,98916.78
2022-10-28T04:53:11.778Z,98912.88
2022-10-28T04:55:38.632Z,98918.78
2022-10-28T04:58:05.474Z,98923.22
2022-10-28T05:00:32.309Z,98926.69
2022-10-28T05:03:03.098Z,98925.59
2022-10-28T05:05:30.107Z,98921.47
2022-10-28T05:07:57.135Z,98913.22
2022-10-28T05:10:24.633Z,98911.13
2022-10-28T05:12:51.324Z,98917.34
2022-10-28T05:15:18.152Z,98923.25
2022-10-28T05:17:46.146Z,98922.34
2022-10-28T05:20:16.710Z,98925.94
2022-10-28T05:22:56.149Z,98931.31
2022-10-28T05:25:24.157Z,98934.72
2022-10-28T05:27:51.130Z,98927.56
2022-10-28T05:30:18.563Z,98932.69
2022-10-28T05:32:46.772Z,98923.56
2022-10-28T05:35:15.301Z,98928.78
2022-10-28T05:37:43.703Z,98925.59
2022-10-28T05:40:11.129Z,98925.72
2022-10-28T05:42:42.416Z,98917.28
2022-10-28T05:45:14.312Z,98915.00
2022-10-28T05:47:46.277Z,98916.44
2022-10-28T05:50:14.699Z,98919.34
2022-10-28T05:52:55.709Z,98917.13
2022-10-28T05:55:24.472Z,98915.84
2022-10-28T05:57:52.645Z,98922.69
2022-10-28T06:00:22.989Z,98909.25
2022-10-28T06:02:50.045Z,98908.09
2022-10-28T06:05:16.836Z,98917.53
2022-10-28T06:07:43.585Z,98912.69
2022-10-28T06:10:11.608Z,98915.84
2022-10-28T06:12:37.422Z,98927.03
2022-10-28T06:15:04.678Z,98921.28
2022-10-28T06:17:31.446Z,98919.97
2022-10-28T06:19:58.295Z,98927.41
2022-10-28T06:22:25.114Z,98928.16
2022-10-28T06:24:51.847Z,98921.47
2022-10-28T06:27:18.559Z,98922.72
2022-10-28T06:29:45.314Z,98923.94
2022-10-28T06:32:12.036Z,98918.50
2022-10-28T06:34:38.825Z,98931.22
2022-10-28T06:37:05.827Z,98922.47
2022-10-28T06:39:33.083Z,98928.97
2022-10-28T06:41:59.920Z,98929.13
2022-10-28T06:44:26.656Z,98927.41
2022-10-28T06:46:57.024Z,98935.94
2022-10-28T06:49:23.896Z,98931.91
2022-10-28T06:51:50.881Z,98930.81
2022-10-28T06:54:18.053Z,98937.38
2022-10-28T06:56:47.723Z,98937.94
2022-10-28T06:59:14.441Z,98933.53
2022-10-28T07:01:41.563Z,98945.47
2022-10-28T07:04:12.253Z,98942.00
2022-10-28T07:06:40.077Z,98943.25
2022-10-28T07:09:07.464Z,98950.13
2022-10-28T07:11:35.326Z,98956.69
2022-10-28T07:14:02.397Z,98959.31
2022-10-28T07:16:29.204Z,98961.97
2022-10-28T07:18:55.930Z,98970.84
2022-10-28T07:21:28.434Z,98973.88
2022-10-28T07:23:58.375Z,98975.88
2022-10-28T07:26:25.299Z,98974.44
2022-10-28T07:28:52.105Z,98974.84
2022-10-28T07:31:19.111Z,98983.72
2022-10-28T07:33:45.989Z,98996.63
2022-10-28T07:36:12.766Z,98988.63
2022-10-28T07:38:39.471Z,98998.41
2022-10-28T07:41:08.152Z,99000.63
2022-10-28T07:43:38.777Z,99008.59
2022-10-28T07:46:07.353Z,99011.22
2022-10-28T07:48:35.539Z,99005.97
2022-10-28T07:51:04.426Z,99007.88
2022-10-28T07:53:31.462Z,99012.69
2022-10-28T07:56:00.791Z,99014.63
2022-10-28T07:58:29.088Z,99016.72
2022-10-28T08:00:56.762Z,99008.44
2022-10-28T08:03:34.520Z,99029.66
2022-10-28T08:06:08.040Z,99029.16
2022-10-28T08:08:35.114Z,99031.81
2022-10-28T08:11:13.069Z,99016.13
2022-10-28T08:13:40.389Z,99009.41
2022-10-28T08:16:08.204Z,99003.91
2022-10-28T08:18:36.000Z,99000.97
2022-10-28T08:21:04.294Z,99007.56
2022-10-28T08:23:31.143Z,99013.59
2022-10-28T08:25:58.346Z,99014.75
2022-10-28T08:28:25.959Z,99013.06
2022-10-28T08:31:04.023Z,99004.47
2022-10-28T08:33:35.716Z,99002.84
2022-10-28T08:36:02.327Z,99011.09
2022-10-28T08:38:28.929Z,99016.59
2022-10-28T08:40:58.841Z,99011.47
2022-10-28T08:43:57.725Z,99002.00
2022-10-28T08:46:46.942Z,99010.78
2022-10-28T08:49:17.707Z,99012.28
2022-10-28T08:51:57.659Z,99016.41
2022-10-28T08:55:02.778Z,99009.13
2022-10-28T08:57:43.158Z,98995.47
2022-10-28T09:00:22.356Z,99004.16
2022-10-28T09:02:58.704Z,99001.75
2022-10-28T09:05:27.666Z,99008.63
2022-10-28T09:07:55.534Z,99001.41
2022-10-28T09:10:37.208Z,99004.78
2022-10-28T09:13:17.817Z,99008.31
2022-10-28T09:16:11.280Z,99006.47
2022-10-28T09:18:56.418Z,99000.09
2022-10-28T09:21:54.209Z,99003.75
2022-10-28T09:24:27.883Z,99005.31
2022-10-28T09:26:58.046Z,99000.38
2022-10-28T09:29:41.802Z,99001.00
2022-10-28T09:32:25.709Z,99000.75
2022-10-28T09:35:00.493Z,99002.63
2022-10-28T09:37:39.069Z,99000.75
2022-10-28T09:40:26.204Z,98994.22
2022-10-28T09:43:18.071Z,98992.84
2022-10-28T09:45:48.276Z,98980.91
2022-10-28T09:48:21.270Z,98971.19
2022-10-28T09:50:52.065Z,98989.31
2022-10-28T09:53:42.863Z,98984.00
2022-10-28T09:56:09.621Z,98985.81
2022-10-28T09:58:45.930Z,98976.06
2022-10-28T10:01:13.696Z,98983.72
2022-10-28T10:03:41.826Z,98987.44
2022-10-28T10:06:24.091Z,98992.78
2022-10-28T10:08:50.746Z,98976.06
2022-10-28T10:11:43.659Z,98983.75
2022-10-28T10:14:15.172Z,98986.50
2022-10-28T10:16:41.840Z,98992.00
2022-10-28T10:19:11.205Z,98987.91
2022-10-28T10:21:56.003Z,98992.56
2022-10-28T10:24:36.111Z,98980.72
2022-10-28T10:27:19.912Z,98982.50
2022-10-28T10:29:49.306Z,98978.50
2022-10-28T10:32:19.832Z,98976.84
2022-10-28T10:34:56.323Z,98971.25
2022-10-28T10:37:24.133Z,98970.22
2022-10-28T10:40:18.449Z,98972.66
2022-10-28T10:42:57.435Z,98965.53
2022-10-28T10:45:32.879Z,98951.97
2022-10-28T10:48:18.328Z,98948.19
2022-10-28T10:50:49.981Z,98958.38
2022-10-28T10:53:31.067Z,98953.28
2022-10-28T10:56:01.765Z,98944.69
2022-10-28T10:58:33.124Z,98937.97
2022-10-28T11:01:03.172Z,98933.03
2022-10-28T11:03:38.690Z,98933.47
2022-10-28T11:06:24.722Z,98922.47
2022-10-28T11:08:58.317Z,98923.47
2022-10-28T11:11:37.798Z,98920.97
2022-10-28T11:14:10.600Z,98910.34
2022-10-28T11:16:53.971Z,98911.56
2022-10-28T11:19:31.674Z,98906.22
2022-10-28T11:22:27.242Z,98904.75
2022-10-28T11:24:55.487Z,98896.84
2022-10-28T11:27:45.015Z,98898.50
2022-10-28T11:30:16.977Z,98898.28
2022-10-28T11:33:02.103Z,98894.31
2022-10-28T11:35:58.005Z,98890.03
2022-10-28T11:38:45.653Z,98891.31
2022-10-28T11:41:40.934Z,98875.91
2022-10-28T11:44:19.335Z,98879.66
2022-10-28T11:47:02.450Z,98883.38
2022-10-28T11:49:43.266Z,98884.81
2022-10-28T11:52:28.670Z,98883.44
2022-10-28T11:55:25.954Z,98889.19
2022-10-28T11:58:18.941Z,98880.72
2022-10-28T12:00:51.457Z,98889.63
2022-10-28T12:03:39.927Z,98894.06
2022-10-28T12:06:17.072Z,98878.91
2022-10-28T12:12:07.921Z,98877.56
2022-10-28T12:14:37.606Z,98877.19
2022-10-28T12:17:16.369Z,98871.66
2022-10-28T12:20:09.130Z,98858.34
2022-10-28T12:22:58.843Z,98851.59
2022-10-28T12:25:30.175Z,98847.16
2022-10-28T12:28:04.805Z,98855.06
2022-10-28T12:30:35.747Z,98852.41
2022-10-28T12:33:17.186Z,98857.97
2022-10-28T12:36:06.893Z,98865.41
2022-10-28T12:38:43.451Z,98868.78
2022-10-28T12:41:17.354Z,98862.03
2022-10-28T12:43:52.823Z,98864.88
2022-10-28T12:46:28.515Z,98862.16
2022-10-28T12:49:04.176Z,98859.28
2022-10-28T12:51:36.942Z,98853.81
2022-10-28T12:54:10.140Z,98850.31
2022-10-28T12:56:40.312Z,98832.19
2022-10-28T12:59:11.509Z,98844.75
2022-10-28T13:01:38.881Z,98832.31
2022-10-28T13:04:06.285Z,98830.84
2022-10-28T13:06:44.579Z,98825.78
2022-10-28T13:09:33.260Z,98828.97
2022-10-28T13:12:40.570Z,98833.72
2022-10-28T13:15:22.443Z,98842.38
2022-10-28T13:18:11.021Z,98833.41
2022-10-28T13:20:58.603Z,98837.53
2022-10-28T13:23:50.229Z,98828.94
2022-10-28T13:26:31.482Z,98834.66
2022-10-28T13:29:01.010Z,98831.72
2022-10-28T13:31:38.785Z,98829.88
2022-10-28T13:34:06.257Z,98823.41
2022-10-28T13:36:36.848Z,98821.94
2022-10-28T13:39:06.868Z,98816.06
2022-10-28T13:41:41.005Z,98817.34
2022-10-28T13:44:10.168Z,98807.66
2022-10-28T13:46:58.825Z,98813.84
2022-10-28T13:49:26.666Z,98808.38
2022-10-28T13:52:08.417Z,98822.09
2022-10-28T13:54:44.060Z,98814.91
2022-10-28T13:57:16.469Z,98817.22
2022-10-28T14:00:00.927Z,98809.75
2022-10-28T14:02:49.333Z,98807.91
2022-10-28T14:05:19.630Z,98811.41
2022-10-28T14:08:00.837Z,98817.69
2022-10-28T14:10:38.127Z,98818.66
2022-10-28T14:13:20.509Z,98818.56
2022-10-28T14:15:49.112Z,98818.28
2022-10-28T14:18:41.554Z,98818.56
2022-10-28T14:21:04.578Z,98813.44
2022-10-28T14:23:34.071Z,98820.19
2022-10-28T14:26:04.690Z,98814.75
2022-10-28T14:28:31.363Z,98809.91
2022-10-28T14:31:12.925Z,98809.84
2022-10-28T14:33:44.928Z,98809.94
2022-10-28T14:36:17.845Z,98810.34
2022-10-28T14:38:48.103Z,98815.47
2022-10-28T14:41:36.850Z,98816.28
2022-10-28T14:44:09.273Z,98817.38
2022-10-28T14:46:43.547Z,98818.56
2022-10-28T14:49:21.703Z,98819.53
2022-10-28T14:51:50.302Z,98813.16
2022-10-28T14:54:24.553Z,98813.25
2022-10-28T14:56:56.590Z,98810.09
2022-10-28T14:59:27.402Z,98809.50
2022-10-28T15:02:18.550Z,98817.06
2022-10-28T15:04:49.137Z,98814.84
2022-10-28T15:07:20.549Z,98816.72
2022-10-28T15:09:53.651Z,98813.31
2022-10-28T15:12:22.869Z,98812.31
2022-10-28T15:14:52.337Z,98809.53
2022-10-28T15:17:23.603Z,98808.47
2022-10-28T15:19:57.134Z,98806.94
2022-10-28T15:22:29.140Z,98809.06
2022-10-28T15:24:57.202Z,98803.97
2022-10-28T15:27:26.308Z,98801.06
2022-10-28T15:29:53.596Z,98794.91
2022-10-28T15:32:20.123Z,98794.00
2022-10-28T15:34:47.447Z,98798.81
2022-10-28T15:37:19.580Z,98791.50
2022-10-28T15:39:46.622Z,98795.44
2022-10-28T15:42:28.958Z,98797.56
2022-10-28T15:44:57.204Z,98790.19
2022-10-28T15:47:29.828Z,98792.81
2022-10-28T15:50:04.937Z,98792.97
2022-10-28T15:52:41.089Z,98798.34
2022-10-28T15:55:21.768Z,98790.34
2022-10-28T15:57:57.180Z,98795.75
2022-10-28T16:00:28.990Z,98804.47
2022-10-28T16:03:08.402Z,98796.25
2022-10-28T16:05:35.035Z,98804.09
2022-10-28T16:08:05.697Z,98790.63
2022-10-28T16:10:43.241Z,98801.13
2022-10-28T16:13:22.597Z,98803.47
2022-10-28T16:16:03.507Z,98804.00
2022-10-28T16:18:34.547Z,98806.19
2022-10-28T16:21:04.266Z,98802.13
2022-10-28T16:23:38.460Z,98797.22
2022-10-28T16:26:05.386Z,98800.78
2022-10-28T16:28:32.718Z,98799.09
2022-10-28T16:31:02.128Z,98804.66
2022-10-28T16:33:34.103Z,98793.41
2022-10-28T16:36:02.515Z,98806.88
2022-10-28T16:38:32.449Z,98806.84
2022-10-28T16:41:00.590Z,98807.66
2022-10-28T16:43:28.870Z,98809.34
2022-10-28T16:45:59.484Z,98798.91
2022-10-28T16:48:28.930Z,98807.09
2022-10-28T16:51:04.857Z,98801.38
2022-10-28T16:53:32.397Z,98802.88
2022-10-28T16:55:59.523Z,98801.09
2022-10-28T16:58:27.937Z,98805.63
2022-10-28T17:00:57.613Z,98800.59
2022-10-28T17:03:24.280Z,98808.09
2022-10-28T17:05:51.153Z,98805.06
2022-10-28T17:08:30.761Z,98804.38
2022-10-28T17:11:04.770Z,98802.22
2022-10-28T17:13:31.598Z,98805.44
2022-10-28T17:15:58.460Z,98812.50
2022-10-28T17:18:25.174Z,98799.53
2022-10-28T17:21:02.487Z,98805.25
2022-10-28T17:23:30.211Z,98803.56
2022-10-28T17:26:01.554Z,98807.56
2022-10-28T17:28:28.338Z,98806.94
2022-10-28T17:31:02.595Z,98805.97
2022-10-28T17:33:29.945Z,98797.06
2022-10-28T17:36:00.158Z,98785.75
2022-10-28T17:38:26.841Z,98792.84
2022-10-28T17:40:55.139Z,98794.34
2022-10-28T17:43:22.738Z,98785.28
2022-10-28T17:45:50.108Z,98772.69
2022-10-28T17:48:17.029Z,98772.69
2022-10-28T17:50:44.348Z,98776.22
2022-10-28T17:53:11.756Z,98773.00
2022-10-28T17:55:38.672Z,98770.66
2022-10-28T17:58:05.356Z,98774.16
2022-10-28T18:00:32.004Z,98772.69
2022-10-28T18:02:58.717Z,98780.72
2022-10-28T18:05:25.409Z,98791.28
2022-10-28T18:07:55.318Z,98787.94
2022-10-28T18:10:22.515Z,98779.72
2022-10-28T18:12:52.839Z,98788.81
2022-10-28T18:15:19.729Z,98789.31
